Time;durP1;ratioP1;P1;durP2;ratioP2;P2;SDS_P1;SDS_P2;PMS_P1;PMS_P2;Temp;Humidity;BMP_temperature;BMP_pressure;BME280_temperature;BME280_humidity;BME280_pressure;Samples;Min_cycle;Max_cycle;Signal;HPM_P1;HPM_P2
2022/09/16 00:01:36;;;;;;;;;;;;;;;11.72;81.53;99088.33;88988;1265;82065;-60
2022/09/16 00:03:44;;;;;;;;;;;;;;;11.76;81.66;99086.73;89095;1265;81436;-60
2022/09/16 00:05:53;;;;;;;;;;;;;;;11.80;81.62;99087.23;89085;1265;98937;-60
2022/09/16 00:08:00;;;;;;;;;;;;;;;11.88;81.66;99085.09;89021;1265;89113;-60
2022/09/16 00:10:12;;;;;;;;;;;;;;;11.93;81.63;99086.14;88987;1265;94702;-61
2022/09/16 00:12:21;;;;;;;;;;;;;;;11.96;81.59;99085.37;89019;1265;81669;-61
2022/09/16 00:14:28;;;;;;;;;;;;;;;12.00;81.69;99084.82;88993;1265;81443;-61
2022/09/16 00:16:35;;;;;;;;;;;;;;;12.02;81.61;99087.75;89029;1265;100231;-61
2022/09/16 00:18:44;;;;;;;;;;;;;;;12.04;81.66;99088.34;89042;1265;87471;-61
2022/09/16 00:20:53;;;;;;;;;;;;;;;12.08;81.62;99091.58;89009;1265;92518;-60
2022/09/16 00:23:00;;;;;;;;;;;;;;;12.06;81.72;99088.39;88889;1265;82363;-61
2022/09/16 00:25:11;;;;;;;;;;;;;;;12.05;81.73;99086.08;89058;1265;82004;-61
2022/09/16 00:27:18;;;;;;;;;;;;;;;12.06;81.62;99088.50;89084;1265;98333;-61
2022/09/16 00:29:30;;;;;;;;;;;;;;;12.03;81.53;99089.40;89053;1265;89220;-60
2022/09/16 00:31:37;;;;;;;;;;;;;;;11.97;81.47;99094.57;89007;1265;94956;-62
2022/09/16 00:33:44;;;;;;;;;;;;;;;11.90;81.38;99095.70;89049;1265;81095;-62
2022/09/16 00:35:53;;;;;;;;;;;;;;;11.89;81.51;99102.43;89004;1267;82524;-61
2022/09/16 00:38:01;;;;;;;;;;;;;;;11.87;81.48;99106.23;89080;1265;97801;-62
2022/09/16 00:40:11;;;;;;;;;;;;;;;11.82;81.49;99105.56;89079;1265;88479;-61
2022/09/16 00:42:19;;;;;;;;;;;;;;;11.79;81.61;99101.73;89024;1265;95537;-62
2022/09/16 00:45:01;;;;;;;;;;;;;;;11.78;81.62;99102.86;89077;1265;81689;-62
2022/09/16 00:47:10;;;;;;;;;;;;;;;11.72;81.67;99101.27;89056;1265;82801;-63
2022/09/16 00:49:18;;;;;;;;;;;;;;;11.71;81.72;99102.38;89052;1265;100405;-63
2022/09/16 00:51:28;;;;;;;;;;;;;;;11.75;81.94;99100.52;89029;1265;89472;-60
2022/09/16 00:53:39;;;;;;;;;;;;;;;11.78;81.91;99105.48;89012;1265;95082;-61
2022/09/16 00:55:49;;;;;;;;;;;;;;;11.78;81.92;99109.67;89017;1265;80770;-61
2022/09/16 00:58:02;;;;;;;;;;;;;;;11.78;81.90;99107.19;89037;1265;80887;-60
2022/09/16 01:00:16;;;;;;;;;;;;;;;11.83;81.94;99111.00;89031;1265;98392;-60
2022/09/16 01:02:24;;;;;;;;;;;;;;;11.85;81.97;99114.35;89063;1265;89291;-61
2022/09/16 01:04:35;;;;;;;;;;;;;;;11.88;81.97;99113.18;89029;1265;95767;-62
2022/09/16 01:06:42;;;;;;;;;;;;;;;11.90;81.94;99107.11;89054;1265;80898;-61
2022/09/16 01:08:52;;;;;;;;;;;;;;;11.91;82.00;99100.77;89084;1265;82479;-61
2022/09/16 01:11:01;;;;;;;;;;;;;;;11.92;81.97;99097.59;89042;1265;97853;-61
2022/09/16 01:13:10;;;;;;;;;;;;;;;11.90;82.01;99101.33;89056;1265;88332;-62
2022/09/16 01:15:18;;;;;;;;;;;;;;;11.87;82.11;99104.83;88949;1268;95127;-62
2022/09/16 01:17:40;;;;;;;;;;;;;;;11.89;82.21;99106.38;89145;1265;82551;-62
2022/09/16 01:20:03;;;;;;;;;;;;;;;11.90;82.03;99103.98;89114;1265;80363;-61
2022/09/16 01:22:21;;;;;;;;;;;;;;;11.90;81.98;99109.08;89053;1265;98792;-61
2022/09/16 01:24:44;;;;;;;;;;;;;;;11.89;81.90;99110.95;89051;1265;87551;-61
2022/09/16 01:27:21;;;;;;;;;;;;;;;11.87;81.90;99114.52;89100;1265;95245;-61
2022/09/16 01:30:07;;;;;;;;;;;;;;;11.80;81.86;99121.48;89034;1265;81686;-61
2022/09/16 01:32:20;;;;;;;;;;;;;;;11.74;81.89;99124.48;88645;1271;83052;-62
2022/09/16 01:34:34;;;;;;;;;;;;;;;11.70;81.81;99123.23;88927;1267;99151;-60
2022/09/16 01:36:48;;;;;;;;;;;;;;;11.66;81.78;99117.96;89053;1265;88855;-61
2022/09/16 01:39:10;;;;;;;;;;;;;;;11.65;81.79;99115.69;89001;1265;94355;-60
2022/09/16 01:41:26;;;;;;;;;;;;;;;11.64;81.88;99110.27;88964;1265;82345;-61
2022/09/16 01:43:41;;;;;;;;;;;;;;;11.66;81.94;99110.39;89029;1265;82376;-62
2022/09/16 01:45:53;;;;;;;;;;;;;;;11.67;82.05;99113.21;89038;1265;97876;-62
2022/09/16 01:48:09;;;;;;;;;;;;;;;11.67;82.21;99113.01;89034;1265;86627;-62
2022/09/16 01:50:25;;;;;;;;;;;;;;;11.74;82.18;99113.87;89026;1265;95211;-62
2022/09/16 01:52:42;;;;;;;;;;;;;;;11.76;82.16;99114.88;89058;1265;81075;-61
2022/09/16 01:54:53;;;;;;;;;;;;;;;11.82;82.18;99115.80;89077;1265;82234;-61
2022/09/16 01:57:06;;;;;;;;;;;;;;;11.88;82.30;99117.73;89105;1265;100186;-61
2022/09/16 01:59:18;;;;;;;;;;;;;;;11.95;82.18;99119.20;89009;1265;88709;-60
2022/09/16 02:01:32;;;;;;;;;;;;;;;12.00;82.20;99124.17;89087;1265;93529;-61
2022/09/16 02:03:42;;;;;;;;;;;;;;;12.02;82.19;99125.80;89086;1265;82595;-62
2022/09/16 02:05:54;;;;;;;;;;;;;;;12.07;82.15;99130.23;89153;1265;82652;-61
2022/09/16 02:08:09;;;;;;;;;;;;;;;12.08;82.06;99124.52;89001;1265;99698;-61
2022/09/16 02:10:20;;;;;;;;;;;;;;;12.12;82.03;99125.96;89040;1265;88964;-62
2022/09/16 02:12:31;;;;;;;;;;;;;;;12.13;81.92;99124.27;89053;1265;94103;-62
2022/09/16 02:14:41;;;;;;;;;;;;;;;12.14;82.05;99127.92;89043;1265;81695;-62
2022/09/16 02:16:54;;;;;;;;;;;;;;;12.14;82.03;99125.38;89060;1265;80950;-61
2022/09/16 02:19:06;;;;;;;;;;;;;;;12.14;81.93;99127.59;89083;1265;98891;-61
2022/09/16 02:21:15;;;;;;;;;;;;;;;12.17;81.96;99127.83;89057;1265;89278;-61
2022/09/16 02:23:26;;;;;;;;;;;;;;;12.17;81.90;99127.62;89027;1265;95817;-61
2022/09/16 02:25:35;;;;;;;;;;;;;;;12.18;81.79;99130.95;89004;1265;82913;-61
2022/09/16 02:27:43;;;;;;;;;;;;;;;12.14;81.80;99129.77;89059;1265;83127;-61
2022/09/16 02:29:53;;;;;;;;;;;;;;;12.13;81.66;99130.15;89004;1265;98552;-61
2022/09/16 02:32:02;;;;;;;;;;;;;;;12.07;81.73;99132.16;89007;1265;87704;-61
2022/09/16 02:34:13;;;;;;;;;;;;;;;11.96;81.79;99132.80;89027;1265;95168;-60
2022/09/16 02:36:22;;;;;;;;;;;;;;;11.98;81.72;99130.78;89070;1265;82223;-61
2022/09/16 02:38:35;;;;;;;;;;;;;;;11.96;81.78;99124.39;89007;1265;82966;-61
2022/09/16 02:40:46;;;;;;;;;;;;;;;11.98;81.80;99123.04;89046;1265;97211;-62
2022/09/16 02:42:53;;;;;;;;;;;;;;;11.95;81.97;99121.06;89051;1265;87910;-60
2022/09/16 02:45:01;;;;;;;;;;;;;;;12.00;81.89;99124.33;89048;1265;93281;-61
2022/09/16 02:47:12;;;;;;;;;;;;;;;12.02;82.06;99121.15;89036;1265;82675;-61
2022/09/16 02:49:24;;;;;;;;;;;;;;;12.06;81.98;99116.76;89072;1265;83098;-62
2022/09/16 02:51:44;;;;;;;;;;;;;;;12.07;81.92;99118.48;89082;1265;100632;-60
2022/09/16 02:53:54;;;;;;;;;;;;;;;12.10;81.99;99117.57;89065;1265;86629;-60
2022/09/16 02:56:05;;;;;;;;;;;;;;;12.15;81.98;99120.80;89094;1265;95464;-61
2022/09/16 02:58:12;;;;;;;;;;;;;;;12.17;81.95;99120.92;89031;1265;82377;-61
2022/09/16 03:00:22;;;;;;;;;;;;;;;12.20;81.91;99116.96;89073;1265;80759;-61
2022/09/16 03:02:31;;;;;;;;;;;;;;;12.17;81.96;99114.52;89030;1265;99344;-60
2022/09/16 03:04:39;;;;;;;;;;;;;;;12.16;81.96;99112.37;89098;1265;88688;-61
2022/09/16 03:06:48;;;;;;;;;;;;;;;12.13;81.90;99114.83;89032;1265;95091;-61
2022/09/16 03:08:58;;;;;;;;;;;;;;;12.07;81.90;99118.30;89001;1265;82240;-60
2022/09/16 03:11:11;;;;;;;;;;;;;;;12.04;81.75;99119.54;89060;1265;82469;-60
2022/09/16 03:13:23;;;;;;;;;;;;;;;11.93;81.78;99119.44;88998;1265;97731;-61
2022/09/16 03:15:55;;;;;;;;;;;;;;;11.83;81.84;99123.66;88913;1267;88678;-61
2022/09/16 03:18:12;;;;;;;;;;;;;;;11.77;81.85;99121.23;88991;1265;95157;-61
2022/09/16 03:20:26;;;;;;;;;;;;;;;11.74;81.87;99126.80;88976;1265;81590;-61
2022/09/16 03:22:44;;;;;;;;;;;;;;;11.67;82.04;99129.96;89026;1265;82207;-61
2022/09/16 03:24:58;;;;;;;;;;;;;;;11.67;82.05;99127.50;89011;1265;98636;-60
2022/09/16 03:27:11;;;;;;;;;;;;;;;11.66;82.12;99127.27;89053;1265;88915;-60
2022/09/16 03:29:24;;;;;;;;;;;;;;;11.61;82.16;99129.77;88997;1265;94860;-60
2022/09/16 03:31:35;;;;;;;;;;;;;;;11.56;82.17;99126.33;89066;1265;82055;-61
2022/09/16 03:33:47;;;;;;;;;;;;;;;11.51;82.29;99124.39;88999;1265;82869;-61
2022/09/16 03:35:57;;;;;;;;;;;;;;;11.50;82.22;99124.58;89111;1265;99792;-61
2022/09/16 03:38:07;;;;;;;;;;;;;;;11.45;82.25;99128.79;89139;1265;88997;-61
2022/09/16 03:40:16;;;;;;;;;;;;;;;11.39;82.34;99131.86;89130;1265;94639;-61
2022/09/16 03:42:23;;;;;;;;;;;;;;;11.37;82.39;99132.14;89045;1265;82227;-60
2022/09/16 03:44:35;;;;;;;;;;;;;;;11.36;82.46;99137.18;89058;1265;82181;-61
2022/09/16 03:46:42;;;;;;;;;;;;;;;11.34;82.47;99138.71;89041;1265;99858;-61
2022/09/16 03:48:52;;;;;;;;;;;;;;;11.32;82.46;99143.59;89054;1265;89074;-61
2022/09/16 03:50:59;;;;;;;;;;;;;;;11.26;82.49;99144.40;89003;1265;94242;-61
2022/09/16 03:53:07;;;;;;;;;;;;;;;11.23;82.56;99145.35;89053;1265;82267;-61
2022/09/16 03:55:15;;;;;;;;;;;;;;;11.20;82.58;99141.05;89040;1265;82282;-60
2022/09/16 03:57:26;;;;;;;;;;;;;;;11.16;82.61;99140.59;88992;1265;100312;-60
2022/09/16 03:59:34;;;;;;;;;;;;;;;11.18;82.70;99143.20;89040;1265;89588;-61
2022/09/16 04:01:42;;;;;;;;;;;;;;;11.16;82.64;99149.12;89070;1265;93481;-61
2022/09/16 04:03:54;;;;;;;;;;;;;;;11.10;82.71;99146.02;89041;1265;82018;-61
2022/09/16 04:06:01;;;;;;;;;;;;;;;11.05;82.72;99144.58;89042;1265;82468;-62
2022/09/16 04:08:08;;;;;;;;;;;;;;;11.01;82.72;99150.11;89039;1265;97137;-62
2022/09/16 04:10:16;;;;;;;;;;;;;;;10.99;82.85;99148.52;89038;1265;89432;-61
2022/09/16 04:12:24;;;;;;;;;;;;;;;10.98;82.83;99151.87;89022;1265;95437;-63
2022/09/16 04:14:31;;;;;;;;;;;;;;;10.95;82.91;99154.08;89006;1265;81804;-62
2022/09/16 04:16:42;;;;;;;;;;;;;;;10.95;82.94;99152.11;89092;1265;82339;-61
2022/09/16 04:18:49;;;;;;;;;;;;;;;10.98;82.96;99156.66;89081;1265;99417;-60
2022/09/16 04:21:03;;;;;;;;;;;;;;;10.95;83.12;99157.40;89102;1265;88927;-60
2022/09/16 04:23:13;;;;;;;;;;;;;;;11.01;83.23;99155.38;89087;1265;94096;-60
2022/09/16 04:25:20;;;;;;;;;;;;;;;11.05;83.21;99160.08;89109;1265;81749;-61
2022/09/16 04:27:28;;;;;;;;;;;;;;;11.09;83.28;99159.55;89080;1265;82688;-62
2022/09/16 04:29:36;;;;;;;;;;;;;;;11.14;83.28;99156.59;89096;1265;98421;-61
2022/09/16 04:31:45;;;;;;;;;;;;;;;11.17;83.34;99157.10;89076;1265;88387;-62
2022/09/16 04:33:52;;;;;;;;;;;;;;;11.18;83.34;99151.42;89031;1265;95607;-63
2022/09/16 04:36:05;;;;;;;;;;;;;;;11.20;83.33;99148.39;89041;1265;81333;-60
2022/09/16 04:38:12;;;;;;;;;;;;;;;11.18;83.29;99143.52;89024;1265;80623;-61
2022/09/16 04:40:20;;;;;;;;;;;;;;;11.20;83.27;99143.31;89049;1265;98896;-62
2022/09/16 04:42:27;;;;;;;;;;;;;;;11.20;83.40;99143.69;89033;1265;88934;-61
2022/09/16 04:44:35;;;;;;;;;;;;;;;11.22;83.22;99152.34;88504;1265;93471;-61
2022/09/16 04:46:42;;;;;;;;;;;;;;;11.26;83.30;99162.41;89008;1265;82410;-61
2022/09/16 04:48:51;;;;;;;;;;;;;;;11.25;83.33;99166.61;89034;1265;82559;-60
2022/09/16 04:51:04;;;;;;;;;;;;;;;11.28;83.28;99163.77;89052;1265;98491;-60
2022/09/16 04:53:15;;;;;;;;;;;;;;;11.34;83.23;99161.28;89024;1265;89256;-60
2022/09/16 04:55:24;;;;;;;;;;;;;;;11.30;83.21;99162.90;88967;1265;95634;-60
2022/09/16 04:57:36;;;;;;;;;;;;;;;11.28;83.31;99165.39;89074;1265;81641;-59
2022/09/16 04:59:45;;;;;;;;;;;;;;;11.26;83.33;99163.83;89051;1265;82487;-60
2022/09/16 05:01:52;;;;;;;;;;;;;;;11.33;83.35;99166.28;89112;1265;100066;-60
2022/09/16 05:04:05;;;;;;;;;;;;;;;11.42;83.42;99166.45;89060;1265;88656;-59
2022/09/16 05:06:14;;;;;;;;;;;;;;;11.54;83.43;99170.60;89074;1265;95406;-62
2022/09/16 05:08:21;;;;;;;;;;;;;;;11.69;83.30;99174.92;89067;1266;81839;-62
2022/09/16 05:10:29;;;;;;;;;;;;;;;11.90;83.43;99172.68;89034;1265;82267;-61
2022/09/16 05:12:37;;;;;;;;;;;;;;;12.49;83.87;99166.31;89108;1265;98658;-61
2022/09/16 05:14:47;;;;;;;;;;;;;;;13.36;83.19;99162.75;89063;1265;88772;-61
2022/09/16 05:16:56;;;;;;;;;;;;;;;13.80;82.25;99158.06;89031;1265;94657;-59
2022/09/16 05:19:06;;;;;;;;;;;;;;;13.88;81.43;99159.91;89074;1265;79875;-59
2022/09/16 05:21:15;;;;;;;;;;;;;;;13.98;81.24;99158.65;89080;1265;82678;-60
2022/09/16 05:23:22;;;;;;;;;;;;;;;13.93;80.80;99161.50;89019;1265;99440;-60
2022/09/16 05:25:29;;;;;;;;;;;;;;;13.99;80.58;99169.43;89052;1266;88875;-60
2022/09/16 05:27:37;;;;;;;;;;;;;;;13.90;80.33;99168.05;89011;1265;95522;-61
2022/09/16 05:29:44;;;;;;;;;;;;;;;13.82;80.26;99166.20;89011;1265;80576;-61
2022/09/16 05:31:52;;;;;;;;;;;;;;;13.79;79.81;99160.27;89069;1265;82801;-61
2022/09/16 05:34:00;;;;;;;;;;;;;;;13.79;79.49;99165.80;89039;1265;100452;-60
2022/09/16 05:36:11;;;;;;;;;;;;;;;13.76;79.68;99170.20;89012;1265;88078;-61
2022/09/16 05:38:18;;;;;;;;;;;;;;;13.90;79.65;99170.60;89027;1265;94479;-62
2022/09/16 05:40:26;;;;;;;;;;;;;;;13.91;79.46;99174.75;89052;1265;80622;-60
2022/09/16 05:42:36;;;;;;;;;;;;;;;13.97;79.33;99177.63;89039;1265;81745;-60
2022/09/16 05:44:43;;;;;;;;;;;;;;;14.14;79.27;99176.94;89041;1265;99843;-59
2022/09/16 05:46:51;;;;;;;;;;;;;;;15.11;79.17;99174.58;89132;1265;88077;-61
2022/09/16 05:48:58;;;;;;;;;;;;;;;16.21;77.78;99168.45;89068;1265;94851;-60
2022/09/16 05:51:07;;;;;;;;;;;;;;;16.22;76.65;99164.86;89075;1265;80568;-60
2022/09/16 05:53:14;;;;;;;;;;;;;;;16.76;76.77;99171.70;89098;1265;82312;-60
2022/09/16 05:55:20;;;;;;;;;;;;;;;16.59;75.83;99168.38;89055;1265;98758;-60
2022/09/16 05:57:27;;;;;;;;;;;;;;;16.68;75.37;99168.36;89021;1265;88887;-60
2022/09/16 05:59:39;;;;;;;;;;;;;;;16.78;74.79;99169.81;88983;1265;94840;-60
2022/09/16 06:01:48;;;;;;;;;;;;;;;16.60;74.32;99162.11;89017;1265;80218;-60
2022/09/16 06:03:56;;;;;;;;;;;;;;;16.79;74.27;99164.42;88992;1265;82222;-60
2022/09/16 06:06:05;;;;;;;;;;;;;;;16.66;73.58;99164.30;89000;1265;99547;-60
2022/09/16 06:08:13;;;;;;;;;;;;;;;16.70;73.20;99162.98;89058;1265;88152;-60
2022/09/16 06:10:20;;;;;;;;;;;;;;;16.50;72.97;99167.22;89047;1265;93088;-60
2022/09/16 06:12:28;;;;;;;;;;;;;;;16.50;72.95;99165.05;89012;1266;80408;-61
2022/09/16 06:14:36;;;;;;;;;;;;;;;16.18;72.97;99163.73;88997;1264;82693;-61
2022/09/16 06:16:43;;;;;;;;;;;;;;;15.86;73.08;99166.06;89011;1266;99573;-61
2022/09/16 06:18:52;;;;;;;;;;;;;;;15.64;73.28;99166.27;89014;1265;88759;-62
2022/09/16 06:21:04;;;;;;;;;;;;;;;15.59;73.08;99166.47;89085;1264;96272;-61
2022/09/16 06:23:12;;;;;;;;;;;;;;;15.53;73.21;99166.72;89021;1266;79390;-60
2022/09/16 06:25:20;;;;;;;;;;;;;;;15.45;73.33;99166.11;89063;1265;81477;-61
2022/09/16 06:27:33;;;;;;;;;;;;;;;15.43;73.08;99164.26;89027;1265;100276;-60
2022/09/16 06:29:40;;;;;;;;;;;;;;;15.36;73.46;99166.19;89037;1266;90153;-60
2022/09/16 06:31:47;;;;;;;;;;;;;;;15.34;73.27;99164.73;89045;1264;95851;-60
2022/09/16 06:33:55;;;;;;;;;;;;;;;15.36;73.25;99166.07;89011;1266;82039;-60
2022/09/16 06:36:08;;;;;;;;;;;;;;;15.49;73.27;99166.39;89070;1264;83040;-60
2022/09/16 06:38:18;;;;;;;;;;;;;;;15.62;73.12;99167.33;89076;1265;98437;-60
2022/09/16 06:40:25;;;;;;;;;;;;;;;15.74;72.82;99159.05;89053;1265;88727;-60
2022/09/16 06:42:33;;;;;;;;;;;;;;;15.89;72.64;99162.73;89041;1266;92753;-60
2022/09/16 06:44:40;;;;;;;;;;;;;;;15.95;72.73;99161.34;88995;1266;81134;-60
2022/09/16 06:46:48;;;;;;;;;;;;;;;16.00;72.57;99161.88;89036;1266;82705;-60
2022/09/16 06:48:56;;;;;;;;;;;;;;;16.11;72.66;99157.42;89038;1266;99317;-60
2022/09/16 06:51:09;;;;;;;;;;;;;;;16.32;72.17;99154.50;89070;1266;87346;-60
2022/09/16 06:53:20;;;;;;;;;;;;;;;16.39;71.88;99147.21;89045;1266;93138;-60
2022/09/16 06:55:27;;;;;;;;;;;;;;;16.46;71.96;99150.45;89030;1266;77716;-59
2022/09/16 06:57:36;;;;;;;;;;;;;;;16.76;71.61;99146.83;89048;1264;80742;-59
2022/09/16 06:59:45;;;;;;;;;;;;;;;16.86;71.24;99156.14;88996;1266;99775;-59
2022/09/16 07:01:52;;;;;;;;;;;;;;;16.91;70.91;99152.57;89056;1266;88407;-61
2022/09/16 07:04:04;;;;;;;;;;;;;;;17.11;70.62;99160.48;89002;1266;95117;-61
2022/09/16 07:06:15;;;;;;;;;;;;;;;17.17;70.24;99162.05;89050;1264;79709;-61
2022/09/16 07:08:23;;;;;;;;;;;;;;;17.07;69.99;99168.52;89034;1265;82720;-60
2022/09/16 07:10:30;;;;;;;;;;;;;;;16.93;69.54;99167.33;89010;1264;100136;-61
2022/09/16 07:12:37;;;;;;;;;;;;;;;16.86;69.46;99165.58;89023;1266;88916;-61
2022/09/16 07:14:46;;;;;;;;;;;;;;;16.79;69.28;99164.70;89010;1266;95361;-63
2022/09/16 07:16:56;;;;;;;;;;;;;;;16.80;69.16;99162.19;89037;1266;80815;-62
2022/09/16 07:19:04;;;;;;;;;;;;;;;16.85;69.03;99167.41;89027;1266;82498;-62
2022/09/16 07:21:12;;;;;;;;;;;;;;;16.99;69.12;99167.91;89039;1266;97868;-63
2022/09/16 07:23:19;;;;;;;;;;;;;;;17.22;68.71;99166.34;89046;1266;87720;-60
2022/09/16 07:25:27;;;;;;;;;;;;;;;17.55;68.83;99171.05;89072;1265;94690;-61
2022/09/16 07:27:34;;;;;;;;;;;;;;;17.99;68.08;99175.00;89081;1265;80604;-62
2022/09/16 07:29:41;;;;;;;;;;;;;;;18.27;67.79;99174.51;89106;1265;82398;-62
2022/09/16 07:31:51;;;;;;;;;;;;;;;18.51;67.07;99175.29;89103;1264;99250;-61
2022/09/16 07:34:01;;;;;;;;;;;;;;;18.66;66.83;99180.80;89093;1266;88457;-60
2022/09/16 07:36:10;;;;;;;;;;;;;;;18.78;66.52;99176.98;89043;1266;95677;-64
2022/09/16 07:38:17;;;;;;;;;;;;;;;18.55;65.17;99179.96;89025;1266;80547;-63
2022/09/16 07:40:24;;;;;;;;;;;;;;;18.73;65.36;99186.66;89018;1266;82502;-61
2022/09/16 07:42:32;;;;;;;;;;;;;;;19.50;64.66;99184.04;89031;1266;99460;-60
2022/09/16 07:44:41;;;;;;;;;;;;;;;19.82;63.80;99177.92;89015;1265;88996;-61
2022/09/16 07:46:49;;;;;;;;;;;;;;;20.38;62.72;99175.02;89067;1266;93947;-63
2022/09/16 07:48:58;;;;;;;;;;;;;;;21.22;62.43;99175.19;88993;1266;81072;-63
2022/09/16 07:51:08;;;;;;;;;;;;;;;21.44;61.19;99176.21;89032;1266;83576;-59
2022/09/16 07:53:15;;;;;;;;;;;;;;;22.32;59.99;99174.83;88980;1266;99466;-61
2022/09/16 07:55:22;;;;;;;;;;;;;;;22.33;58.70;99175.54;89018;1265;88979;-63
2022/09/16 07:57:30;;;;;;;;;;;;;;;23.61;59.27;99172.67;89030;1266;94177;-61
2022/09/16 07:59:39;;;;;;;;;;;;;;;24.63;57.11;99165.60;89020;1265;78125;-62
2022/09/16 08:01:50;;;;;;;;;;;;;;;25.35;51.09;99163.55;89099;1266;81425;-62
2022/09/16 08:04:00;;;;;;;;;;;;;;;25.77;53.47;99168.13;89056;1266;98126;-61
2022/09/16 08:06:10;;;;;;;;;;;;;;;25.72;51.30;99167.07;89110;1266;88867;-61
2022/09/16 08:08:20;;;;;;;;;;;;;;;25.71;51.74;99171.34;89077;1265;94879;-62
2022/09/16 08:10:31;;;;;;;;;;;;;;;25.83;51.37;99176.52;89073;1265;79986;-61
2022/09/16 08:12:37;;;;;;;;;;;;;;;25.35;51.71;99177.37;89104;1265;81428;-59
2022/09/16 08:14:44;;;;;;;;;;;;;;;26.11;51.02;99170.98;89101;1265;98893;-62
2022/09/16 08:16:51;;;;;;;;;;;;;;;26.74;50.52;99167.94;89093;1265;89719;-62
2022/09/16 08:18:59;;;;;;;;;;;;;;;27.29;49.49;99170.38;89038;1265;94874;-63
2022/09/16 08:21:09;;;;;;;;;;;;;;;27.28;47.06;99175.83;89047;1265;80373;-63
2022/09/16 08:23:16;;;;;;;;;;;;;;;27.05;46.40;99173.11;89058;1265;82783;-62
2022/09/16 08:25:23;;;;;;;;;;;;;;;26.66;45.81;99170.67;89052;1266;98791;-62
2022/09/16 08:27:30;;;;;;;;;;;;;;;26.35;46.11;99167.46;89008;1266;88021;-61
2022/09/16 08:29:37;;;;;;;;;;;;;;;26.51;45.97;99167.81;89033;1265;95457;-60
2022/09/16 08:31:44;;;;;;;;;;;;;;;27.02;45.50;99171.41;89042;1265;79475;-62
2022/09/16 08:33:51;;;;;;;;;;;;;;;27.26;45.16;99168.59;89045;1265;82646;-62
2022/09/16 08:36:03;;;;;;;;;;;;;;;26.69;44.23;99164.65;89027;1265;99923;-60
2022/09/16 08:38:12;;;;;;;;;;;;;;;25.89;44.24;99161.43;89067;1265;89354;-61
2022/09/16 08:40:21;;;;;;;;;;;;;;;25.59;43.52;99161.00;89033;1266;94634;-61
2022/09/16 08:42:40;;;;;;;;;;;;;;;24.95;43.68;99165.28;89063;1265;80625;-61
2022/09/16 08:44:55;;;;;;;;;;;;;;;24.85;43.56;99163.34;89068;1266;81921;-60
2022/09/16 08:47:05;;;;;;;;;;;;;;;24.90;43.11;99161.02;89067;1265;99884;-61
2022/09/16 08:49:25;;;;;;;;;;;;;;;24.49;42.97;99158.65;89016;1265;88707;-61
2022/09/16 08:51:32;;;;;;;;;;;;;;;23.57;42.61;99168.83;89023;1265;94458;-61
2022/09/16 08:53:46;;;;;;;;;;;;;;;23.08;44.23;99168.70;89052;1265;80821;-61
2022/09/16 08:55:53;;;;;;;;;;;;;;;23.51;44.77;99170.16;89122;1266;82520;-60
2022/09/16 08:58:07;;;;;;;;;;;;;;;24.25;44.86;99160.42;89099;1265;98994;-60
2022/09/16 09:00:22;;;;;;;;;;;;;;;25.02;44.46;99164.10;89133;1266;89341;-61
2022/09/16 09:02:41;;;;;;;;;;;;;;;25.58;44.14;99165.29;89065;1267;93431;-61
2022/09/16 09:04:48;;;;;;;;;;;;;;;26.26;42.65;99161.55;89079;1265;78416;-61
2022/09/16 09:07:06;;;;;;;;;;;;;;;26.60;42.60;99164.83;89037;1265;82447;-63
2022/09/16 09:09:27;;;;;;;;;;;;;;;26.11;40.73;99161.90;89048;1266;99473;-63
2022/09/16 09:11:42;;;;;;;;;;;;;;;25.97;41.04;99168.95;89096;1265;88989;-61
2022/09/16 09:14:02;;;;;;;;;;;;;;;25.50;40.61;99167.52;89021;1265;95427;-60
2022/09/16 09:16:17;;;;;;;;;;;;;;;25.63;40.74;99167.24;89050;1266;78795;-62
2022/09/16 09:18:37;;;;;;;;;;;;;;;25.63;40.51;99165.59;89046;1266;83244;-62
2022/09/16 09:20:53;;;;;;;;;;;;;;;25.31;40.13;99169.66;89046;1265;98626;-60
2022/09/16 09:23:12;;;;;;;;;;;;;;;24.96;40.47;99174.11;89050;1265;88111;-61
2022/09/16 09:25:30;;;;;;;;;;;;;;;24.71;41.04;99170.20;89065;1266;93952;-62
2022/09/16 09:27:46;;;;;;;;;;;;;;;24.12;40.88;99170.04;89037;1265;80247;-63
2022/09/16 09:30:18;;;;;;;;;;;;;;;23.81;41.83;99173.30;89031;1266;80817;-63
2022/09/16 09:32:33;;;;;;;;;;;;;;;23.71;41.42;99175.05;89025;1265;100289;-61
2022/09/16 09:34:51;;;;;;;;;;;;;;;23.51;42.07;99172.66;89013;1265;88862;-61
2022/09/16 09:37:17;;;;;;;;;;;;;;;23.42;41.01;99175.45;89005;1265;96086;-61
2022/09/16 09:39:46;;;;;;;;;;;;;;;22.79;42.00;99176.16;89030;1266;81041;-60
2022/09/16 09:41:57;;;;;;;;;;;;;;;22.68;42.62;99181.27;89110;1266;82813;-60
2022/09/16 09:44:16;;;;;;;;;;;;;;;22.62;43.22;99179.16;89065;1266;99839;-60
2022/09/16 09:46:26;;;;;;;;;;;;;;;22.65;43.46;99172.35;89119;1266;87519;-60
2022/09/16 09:48:37;;;;;;;;;;;;;;;22.71;43.59;99173.27;89110;1266;94448;-61
2022/09/16 09:50:45;;;;;;;;;;;;;;;22.61;43.66;99172.67;89120;1266;80375;-60
2022/09/16 09:52:58;;;;;;;;;;;;;;;22.27;43.84;99173.19;89103;1266;83283;-60
2022/09/16 09:55:17;;;;;;;;;;;;;;;21.79;43.71;99176.73;89050;1266;99142;-60
2022/09/16 09:57:32;;;;;;;;;;;;;;;21.64;43.67;99177.11;89011;1266;88573;-62
2022/09/16 09:59:45;;;;;;;;;;;;;;;21.58;44.07;99179.27;89049;1266;95176;-59
2022/09/16 10:01:56;;;;;;;;;;;;;;;21.38;44.21;99181.44;89075;1266;79180;-61
2022/09/16 10:04:09;;;;;;;;;;;;;;;21.18;44.48;99178.33;89030;1266;81452;-61
2022/09/16 10:06:18;;;;;;;;;;;;;;;20.91;45.04;99187.86;89035;1264;99262;-63
2022/09/16 10:08:30;;;;;;;;;;;;;;;20.84;45.65;99182.58;89078;1267;89123;-63
2022/09/16 10:10:42;;;;;;;;;;;;;;;20.83;46.18;99185.05;89067;1266;95606;-62
2022/09/16 10:12:49;;;;;;;;;;;;;;;20.76;46.07;99181.38;89045;1266;79473;-59
2022/09/16 10:14:58;;;;;;;;;;;;;;;20.75;45.72;99181.12;89115;1264;80531;-59
2022/09/16 10:17:14;;;;;;;;;;;;;;;20.80;45.57;99184.75;89082;1264;100411;-59
2022/09/16 10:19:24;;;;;;;;;;;;;;;20.88;46.25;99183.37;89077;1264;89553;-60
2022/09/16 10:21:47;;;;;;;;;;;;;;;20.89;46.53;99186.00;89117;1264;95416;-59
2022/09/16 10:23:58;;;;;;;;;;;;;;;20.91;46.11;99183.90;89090;1264;79259;-59
2022/09/16 10:26:19;;;;;;;;;;;;;;;20.68;46.35;99183.69;89154;1264;82250;-59
2022/09/16 10:28:29;;;;;;;;;;;;;;;20.46;46.39;99185.80;89123;1264;98802;-59
2022/09/16 10:30:48;;;;;;;;;;;;;;;20.13;46.43;99180.99;89139;1266;87870;-61
2022/09/16 10:33:00;;;;;;;;;;;;;;;20.10;46.46;99182.15;89082;1264;95287;-60
2022/09/16 10:35:20;;;;;;;;;;;;;;;20.32;47.22;99181.09;89136;1264;80283;-60
2022/09/16 10:37:27;;;;;;;;;;;;;;;20.37;47.37;99180.09;89144;1264;83012;-58
2022/09/16 10:39:35;;;;;;;;;;;;;;;20.19;47.33;99187.77;89135;1266;98232;-60
2022/09/16 10:41:45;;;;;;;;;;;;;;;19.90;47.23;99191.07;89088;1264;88986;-58
2022/09/16 10:43:56;;;;;;;;;;;;;;;19.67;47.53;99191.41;89075;1264;94852;-59
2022/09/16 10:46:07;;;;;;;;;;;;;;;19.30;47.73;99197.14;89070;1264;80450;-59
2022/09/16 10:48:16;;;;;;;;;;;;;;;19.20;48.05;99199.27;89077;1264;82444;-58
2022/09/16 10:50:24;;;;;;;;;;;;;;;19.38;48.35;99196.69;89117;1264;99921;-59
2022/09/16 10:52:32;;;;;;;;;;;;;;;19.55;48.49;99192.70;89080;1264;89481;-58
2022/09/16 10:54:39;;;;;;;;;;;;;;;19.49;48.54;99189.48;89087;1264;94810;-59
2022/09/16 10:56:50;;;;;;;;;;;;;;;19.38;48.76;99190.63;89079;1264;79933;-60
2022/09/16 10:59:11;;;;;;;;;;;;;;;19.37;48.70;99189.20;89062;1266;81900;-59
2022/09/16 11:01:36;;;;;;;;;;;;;;;19.28;48.80;99189.91;89123;1266;99163;-60
2022/09/16 11:04:17;;;;;;;;;;;;;;;19.02;48.40;99196.38;89117;1266;86692;-59
2022/09/16 11:06:40;;;;;;;;;;;;;;;18.72;48.53;99192.78;89077;1264;94867;-59
2022/09/16 11:09:00;;;;;;;;;;;;;;;18.37;48.66;99193.77;89148;1264;78325;-59
2022/09/16 11:11:15;;;;;;;;;;;;;;;18.28;48.77;99188.13;89155;1264;81891;-59
2022/09/16 11:13:39;;;;;;;;;;;;;;;18.34;49.07;99190.86;89156;1264;99294;-59
2022/09/16 11:15:59;;;;;;;;;;;;;;;18.32;49.39;99191.58;89183;1263;88692;-65
2022/09/16 11:18:23;;;;;;;;;;;;;;;18.36;49.44;99187.38;89130;1264;92667;-66
2022/09/16 11:20:45;;;;;;;;;;;;;;;18.25;49.49;99187.88;89131;1264;78368;-65
2022/09/16 11:22:58;;;;;;;;;;;;;;;18.18;49.58;99184.30;89177;1266;82515;-68